createdAt,value
2019-03-29T00:00:42.282Z,83.04
2019-03-29T00:01:42.267Z,83.34
2019-03-29T00:02:42.909Z,84.28
2019-03-29T00:03:42.307Z,83.04
2019-03-29T00:04:42.262Z,82.93
2019-03-29T00:05:42.225Z,82.10
2019-03-29T00:06:42.212Z,82.21
2019-03-29T00:07:42.322Z,82.83
2019-03-29T00:08:42.198Z,82.52
2019-03-29T00:09:42.198Z,82.97
2019-03-29T00:10:42.177Z,82.87
2019-03-29T00:11:42.157Z,83.28
2019-03-29T00:12:42.151Z,83.34
2019-03-29T00:13:42.186Z,83.90
2019-03-29T00:14:42.352Z,84.11
2019-03-29T00:15:42.114Z,84.11
2019-03-29T00:16:42.099Z,83.90
2019-03-29T00:17:42.084Z,83.90
2019-03-29T00:18:42.083Z,84.11
2019-03-29T00:19:42.099Z,84.21
2019-03-29T00:20:42.053Z,84.31
2019-03-29T00:21:42.061Z,83.53
2019-03-29T00:22:42.037Z,82.70
2019-03-29T00:23:42.020Z,84.45
2019-03-29T00:24:42.046Z,84.15
2019-03-29T00:25:42.030Z,84.36
2019-03-29T00:26:41.993Z,83.90
2019-03-29T00:27:41.978Z,84.00
2019-03-29T00:28:41.983Z,84.63
2019-03-29T00:29:41.959Z,84.31
2019-03-29T00:30:41.972Z,83.25
2019-03-29T00:31:41.931Z,82.97
2019-03-29T00:32:41.922Z,82.87
2019-03-29T00:33:41.924Z,83.70
2019-03-29T00:34:42.081Z,84.31
2019-03-29T00:35:41.919Z,84.05
2019-03-29T00:36:41.881Z,83.84
2019-03-29T00:37:52.818Z,83.73
2019-03-29T00:38:42.852Z,84.05
2019-03-29T00:39:41.870Z,83.63
2019-03-29T00:40:41.853Z,83.63
2019-03-29T00:41:41.820Z,83.73
2019-03-29T00:42:42.963Z,83.94
2019-03-29T00:43:41.805Z,84.05
2019-03-29T00:44:41.795Z,84.15
2019-03-29T00:45:41.796Z,84.05
2019-03-29T00:46:41.771Z,84.50
2019-03-29T00:47:41.756Z,84.81
2019-03-29T00:48:41.736Z,84.70
2019-03-29T00:49:41.726Z,84.50
2019-03-29T00:50:41.753Z,84.08
2019-03-29T00:51:41.706Z,84.60
2019-03-29T00:52:42.343Z,84.39
2019-03-29T00:53:41.681Z,84.39
2019-03-29T00:54:41.669Z,83.98
2019-03-29T00:55:41.690Z,84.08
2019-03-29T00:56:41.654Z,83.87
2019-03-29T00:57:41.637Z,84.19
2019-03-29T00:58:41.624Z,84.39
2019-03-29T00:59:41.614Z,84.50
2019-03-29T01:00:41.627Z,84.19
2019-03-29T01:01:41.595Z,84.29
2019-03-29T01:02:41.583Z,84.50
2019-03-29T01:03:41.572Z,84.60
2019-03-29T01:04:41.566Z,84.70
2019-03-29T01:05:41.549Z,86.11
2019-03-29T01:06:41.561Z,87.25
2019-03-29T01:07:41.531Z,86.63
2019-03-29T01:08:41.518Z,86.63
2019-03-29T01:09:41.503Z,86.42
2019-03-29T01:10:41.511Z,86.38
2019-03-29T01:11:41.515Z,86.69
2019-03-29T01:12:41.492Z,86.07
2019-03-29T01:13:41.463Z,85.97
2019-03-29T01:14:42.268Z,86.07
2019-03-29T01:15:41.445Z,85.52
2019-03-29T01:16:41.474Z,85.31
2019-03-29T01:17:41.412Z,84.48
2019-03-29T01:18:41.407Z,84.31
2019-03-29T01:19:41.440Z,84.07
2019-03-29T01:20:41.389Z,84.31
2019-03-29T01:21:41.404Z,84.31
2019-03-29T01:22:41.357Z,84.17
2019-03-29T01:23:41.348Z,84.31
2019-03-29T01:24:41.457Z,84.42
2019-03-29T01:25:41.348Z,84.73
2019-03-29T01:26:41.347Z,84.56
2019-03-29T01:27:41.308Z,84.94
2019-03-29T01:28:41.290Z,84.63
2019-03-29T01:29:41.280Z,84.73
2019-03-29T01:30:41.317Z,84.77
2019-03-29T01:31:41.284Z,85.80
2019-03-29T01:32:41.243Z,86.59
2019-03-29T01:33:41.290Z,87.10
2019-03-29T01:34:41.227Z,87.00
2019-03-29T01:35:41.218Z,86.11
2019-03-29T01:36:41.229Z,85.86
2019-03-29T01:37:41.193Z,85.76
2019-03-29T01:38:41.193Z,86.18
2019-03-29T01:39:41.170Z,86.07
2019-03-29T01:40:41.157Z,85.04
2019-03-29T01:41:41.483Z,84.52
2019-03-29T01:42:41.136Z,84.42
2019-03-29T01:43:41.124Z,85.55
2019-03-29T01:44:41.114Z,86.38
2019-03-29T01:45:41.106Z,86.79
2019-03-29T01:46:41.126Z,86.59
2019-03-29T01:47:41.078Z,87.73
2019-03-29T01:48:41.070Z,88.24
2019-03-29T01:49:41.233Z,87.93
2019-03-29T01:50:41.046Z,88.24
2019-03-29T01:51:41.057Z,88.14
2019-03-29T01:52:41.027Z,88.14
2019-03-29T01:53:41.011Z,87.93
2019-03-29T01:54:40.997Z,87.21
2019-03-29T01:55:40.996Z,86.65
2019-03-29T01:56:41.163Z,86.59
2019-03-29T01:57:41.004Z,86.55
2019-03-29T01:58:40.953Z,86.13
2019-03-29T01:59:40.944Z,86.13
2019-03-29T02:00:40.931Z,86.13
2019-03-29T02:01:40.949Z,86.03
2019-03-29T02:02:40.947Z,86.13
2019-03-29T02:03:40.897Z,85.93
2019-03-29T02:04:40.890Z,85.93
2019-03-29T02:05:40.925Z,86.03
2019-03-29T02:06:40.881Z,85.93
2019-03-29T02:07:40.879Z,85.93
2019-03-29T02:08:40.842Z,85.93
2019-03-29T02:09:40.887Z,85.62
2019-03-29T02:10:40.825Z,85.10
2019-03-29T02:11:41.090Z,84.79
2019-03-29T02:12:40.835Z,84.52
2019-03-29T02:13:40.794Z,84.31
2019-03-29T02:14:40.803Z,84.63
2019-03-29T02:15:40.765Z,85.55
2019-03-29T02:16:40.767Z,85.76
2019-03-29T02:17:40.776Z,85.60
2019-03-29T02:18:40.728Z,85.35
2019-03-29T02:19:40.723Z,86.11
2019-03-29T02:20:40.709Z,85.91
2019-03-29T02:21:40.703Z,86.21
2019-03-29T02:22:40.715Z,85.53
2019-03-29T02:23:40.707Z,86.15
2019-03-29T02:24:40.663Z,86.15
2019-03-29T02:25:40.658Z,86.15
2019-03-29T02:26:40.640Z,87.56
2019-03-29T02:27:40.662Z,88.01
2019-03-29T02:28:40.621Z,88.28
2019-03-29T02:29:40.608Z,88.39
2019-03-29T02:30:40.601Z,87.76
2019-03-29T02:31:42.402Z,87.56
2019-03-29T02:32:40.599Z,87.56
2019-03-29T02:33:40.583Z,87.56
2019-03-29T02:34:40.684Z,87.66
2019-03-29T02:35:40.543Z,87.97
2019-03-29T02:36:40.557Z,87.31
2019-03-29T02:37:40.544Z,87.66
2019-03-29T02:38:54.221Z,87.46
2019-03-29T02:39:41.509Z,88.04
2019-03-29T02:40:40.486Z,88.18
2019-03-29T02:41:40.476Z,88.07
2019-03-29T02:42:40.506Z,88.07
2019-03-29T02:43:40.479Z,88.07
2019-03-29T02:44:40.452Z,88.24
2019-03-29T02:45:40.427Z,88.55
2019-03-29T02:46:40.416Z,88.04
2019-03-29T02:47:40.410Z,87.31
2019-03-29T02:48:40.426Z,87.52
2019-03-29T02:49:40.702Z,87.76
2019-03-29T02:50:40.375Z,88.28
2019-03-29T02:51:40.366Z,88.18
2019-03-29T02:52:40.428Z,87.97
2019-03-29T02:53:40.363Z,87.56
2019-03-29T02:54:40.325Z,88.28
2019-03-29T02:55:40.317Z,88.07
2019-03-29T02:56:40.305Z,87.76
2019-03-29T02:57:40.301Z,88.18
2019-03-29T02:58:40.318Z,87.76
2019-03-29T02:59:40.273Z,88.07
2019-03-29T03:00:40.274Z,87.66
2019-03-29T03:01:40.249Z,87.25
2019-03-29T03:02:40.249Z,87.35
2019-03-29T03:03:40.257Z,87.15
2019-03-29T03:04:40.214Z,87.35
2019-03-29T03:05:40.236Z,86.73
2019-03-29T03:06:40.194Z,87.25
2019-03-29T03:07:40.187Z,88.32
2019-03-29T03:08:40.199Z,87.70
2019-03-29T03:09:40.164Z,88.01
2019-03-29T03:10:40.156Z,88.22
2019-03-29T03:11:40.141Z,88.12
2019-03-29T03:12:40.125Z,88.64
2019-03-29T03:13:40.168Z,88.84
2019-03-29T03:14:40.120Z,88.43
2019-03-29T03:15:40.096Z,88.74
2019-03-29T03:16:40.099Z,88.94
2019-03-29T03:17:40.076Z,89.15
2019-03-29T03:18:40.149Z,88.53
2019-03-29T03:19:40.049Z,88.46
2019-03-29T03:20:40.037Z,88.32
2019-03-29T03:21:40.021Z,87.87
2019-03-29T03:22:40.015Z,88.01
2019-03-29T03:23:40.051Z,88.49
2019-03-29T03:24:40.016Z,87.35
2019-03-29T03:25:39.974Z,88.07
2019-03-29T03:26:39.971Z,87.15
2019-03-29T03:27:39.958Z,87.04
2019-03-29T03:28:39.942Z,87.35
2019-03-29T03:29:39.973Z,87.15
2019-03-29T03:30:39.921Z,87.25
2019-03-29T03:31:39.940Z,87.04
2019-03-29T03:32:39.907Z,87.76
2019-03-29T03:33:39.886Z,87.87
2019-03-29T03:34:39.902Z,87.76
2019-03-29T03:35:39.884Z,87.87
2019-03-29T03:36:39.855Z,87.46
2019-03-29T03:37:39.845Z,88.07
2019-03-29T03:38:39.864Z,87.87
2019-03-29T03:39:39.848Z,87.41
2019-03-29T03:40:39.822Z,86.79
2019-03-29T03:41:39.797Z,87.41
2019-03-29T03:42:39.788Z,87.10
2019-03-29T03:43:39.773Z,86.90
2019-03-29T03:44:39.785Z,87.21
2019-03-29T03:45:39.807Z,87.21
2019-03-29T03:46:39.742Z,87.41
2019-03-29T03:47:39.732Z,87.73
2019-03-29T03:48:39.729Z,87.93
2019-03-29T03:49:39.738Z,87.10
2019-03-29T03:50:39.695Z,87.00
2019-03-29T03:51:39.690Z,87.41
2019-03-29T03:52:39.670Z,87.93
2019-03-29T03:53:39.678Z,87.93
2019-03-29T03:54:39.679Z,87.93
2019-03-29T03:55:39.647Z,87.62
2019-03-29T03:56:39.629Z,87.62
2019-03-29T03:57:39.630Z,87.10
2019-03-29T03:58:39.609Z,87.93
2019-03-29T03:59:39.647Z,87.73
2019-03-29T04:00:39.584Z,87.83
2019-03-29T04:01:39.576Z,87.25
2019-03-29T04:02:39.561Z,87.10
2019-03-29T04:03:39.555Z,87.31
2019-03-29T04:04:39.570Z,86.63
2019-03-29T04:05:39.535Z,86.63
2019-03-29T04:06:39.516Z,86.63
2019-03-29T04:07:39.514Z,86.83
2019-03-29T04:08:39.496Z,86.52
2019-03-29T04:09:49.542Z,87.25
2019-03-29T04:10:42.284Z,87.00
2019-03-29T04:11:39.468Z,87.00
2019-03-29T04:12:39.447Z,87.10
2019-03-29T04:13:39.442Z,87.10
2019-03-29T04:14:39.477Z,87.10
2019-03-29T04:15:39.450Z,87.41
2019-03-29T04:16:39.402Z,87.00
2019-03-29T04:17:39.389Z,86.69
2019-03-29T04:18:39.431Z,87.00
2019-03-29T04:19:39.381Z,87.10
2019-03-29T04:20:39.388Z,86.38
2019-03-29T04:21:39.355Z,86.18
2019-03-29T04:22:39.415Z,85.86
2019-03-29T04:23:39.330Z,85.97
2019-03-29T04:24:39.319Z,86.11
2019-03-29T04:25:39.328Z,85.39
2019-03-29T04:26:39.289Z,85.70
2019-03-29T04:27:39.380Z,85.70
2019-03-29T04:28:39.282Z,85.60
2019-03-29T04:29:39.262Z,85.70
2019-03-29T04:30:39.270Z,85.84
2019-03-29T04:31:39.235Z,85.11
2019-03-29T04:32:39.225Z,84.70
2019-03-29T04:33:39.213Z,84.39
2019-03-29T04:34:39.206Z,85.16
2019-03-29T04:35:39.240Z,85.47
2019-03-29T04:36:39.190Z,85.88
2019-03-29T04:37:39.177Z,85.78
2019-03-29T04:38:39.160Z,85.50
2019-03-29T04:39:39.145Z,86.33
2019-03-29T04:40:39.160Z,86.17
2019-03-29T04:41:39.192Z,86.47
2019-03-29T04:42:39.115Z,86.99
2019-03-29T04:43:39.099Z,87.30
2019-03-29T04:44:39.114Z,87.10
2019-03-29T04:45:39.105Z,86.93
2019-03-29T04:46:39.080Z,87.35
2019-03-29T04:47:39.053Z,87.45
2019-03-29T04:48:39.049Z,87.45
2019-03-29T04:49:39.055Z,87.66
2019-03-29T04:50:39.080Z,86.83
2019-03-29T04:51:39.015Z,87.04
2019-03-29T04:52:39.002Z,86.97
2019-03-29T04:53:38.986Z,86.87
2019-03-29T04:54:38.972Z,86.66
2019-03-29T04:55:38.995Z,86.45
2019-03-29T04:56:38.959Z,86.66
2019-03-29T04:57:38.980Z,86.45
2019-03-29T04:58:38.926Z,86.66
2019-03-29T04:59:38.917Z,87.07
2019-03-29T05:00:38.934Z,86.87
2019-03-29T05:01:38.896Z,86.91
2019-03-29T05:02:38.888Z,86.55
2019-03-29T05:03:38.871Z,86.39
2019-03-29T05:04:38.871Z,86.60
2019-03-29T05:05:38.850Z,86.49
2019-03-29T05:06:38.858Z,86.29
2019-03-29T05:07:38.844Z,86.70
2019-03-29T05:08:38.815Z,86.70
2019-03-29T05:09:38.799Z,86.60
2019-03-29T05:10:38.811Z,86.39
2019-03-29T05:11:38.806Z,86.54
2019-03-29T05:12:38.770Z,86.43
2019-03-29T05:13:38.758Z,86.64
2019-03-29T05:14:38.742Z,86.18
2019-03-29T05:15:38.742Z,87.32
2019-03-29T05:16:38.748Z,87.43
2019-03-29T05:17:38.719Z,88.20
2019-03-29T05:18:38.698Z,88.05
2019-03-29T05:19:38.693Z,87.74
2019-03-29T05:20:38.682Z,88.26
2019-03-29T05:21:38.708Z,87.32
2019-03-29T05:22:38.653Z,87.16
2019-03-29T05:23:38.678Z,87.43
2019-03-29T05:24:38.633Z,86.80
2019-03-29T05:25:38.620Z,86.91
2019-03-29T05:26:38.636Z,86.80
2019-03-29T05:27:38.624Z,86.54
2019-03-29T05:28:38.588Z,86.43
2019-03-29T05:29:38.576Z,86.74
2019-03-29T05:30:38.561Z,86.74
2019-03-29T05:31:38.559Z,86.43
2019-03-29T05:32:38.566Z,86.54
2019-03-29T05:33:38.561Z,86.64
2019-03-29T05:34:38.526Z,86.43
2019-03-29T05:35:38.506Z,86.64
2019-03-29T05:36:38.494Z,86.54
2019-03-29T05:37:38.550Z,86.64
2019-03-29T05:38:38.476Z,86.85
2019-03-29T05:39:38.461Z,86.68
2019-03-29T05:40:38.451Z,86.57
2019-03-29T05:41:38.482Z,86.99
2019-03-29T05:42:38.459Z,87.30
2019-03-29T05:43:38.416Z,86.88
2019-03-29T05:44:40.765Z,87.09
2019-03-29T05:45:38.400Z,86.99
2019-03-29T05:46:38.383Z,87.19
2019-03-29T05:47:38.441Z,87.05
2019-03-29T05:48:38.368Z,87.19
2019-03-29T05:49:38.368Z,87.37
2019-03-29T05:50:38.338Z,87.51
2019-03-29T05:51:38.333Z,87.57
2019-03-29T05:52:38.353Z,88.40
2019-03-29T05:53:38.306Z,88.40
2019-03-29T05:54:38.370Z,88.61
2019-03-29T05:55:38.281Z,88.40
2019-03-29T05:56:38.270Z,88.09
2019-03-29T05:57:38.319Z,90.33
2019-03-29T05:58:38.249Z,91.16
2019-03-29T05:59:38.242Z,91.58
2019-03-29T06:00:38.228Z,91.74
2019-03-29T06:01:38.217Z,91.43
2019-03-29T06:02:38.230Z,90.91
2019-03-29T06:03:38.198Z,90.19
2019-03-29T06:04:38.182Z,89.87
2019-03-29T06:05:38.179Z,90.25
2019-03-29T06:06:38.160Z,89.83
2019-03-29T06:07:38.246Z,90.87
2019-03-29T06:08:38.136Z,91.49
2019-03-29T06:09:38.128Z,91.08
2019-03-29T06:10:48.301Z,91.45
2019-03-29T06:11:39.105Z,91.03
2019-03-29T06:12:38.117Z,91.35
2019-03-29T06:13:38.081Z,91.24
2019-03-29T06:14:38.073Z,91.55
2019-03-29T06:15:38.062Z,91.45
2019-03-29T06:16:39.438Z,91.35
2019-03-29T06:17:47.956Z,91.55
2019-03-29T06:18:39.027Z,91.35
2019-03-29T06:19:38.080Z,90.93
2019-03-29T06:20:38.000Z,91.45
2019-03-29T06:21:37.990Z,91.35
2019-03-29T06:22:38.001Z,91.24
2019-03-29T06:23:37.970Z,91.76
2019-03-29T06:24:37.961Z,91.82
2019-03-29T06:25:37.976Z,91.20
2019-03-29T06:26:37.972Z,91.20
2019-03-29T06:27:37.926Z,91.72
2019-03-29T06:28:37.939Z,91.61
2019-03-29T06:29:37.902Z,90.58
2019-03-29T06:30:37.889Z,91.09
2019-03-29T06:31:37.879Z,91.09
2019-03-29T06:32:37.879Z,91.09
2019-03-29T06:33:37.917Z,91.16
2019-03-29T06:34:37.847Z,90.95
2019-03-29T06:35:37.839Z,91.26
2019-03-29T06:36:37.860Z,90.95
2019-03-29T06:37:37.819Z,90.53
2019-03-29T06:38:37.824Z,90.44
2019-03-29T06:39:37.787Z,90.44
2019-03-29T06:40:37.778Z,90.70
2019-03-29T06:41:37.768Z,90.44
2019-03-29T06:42:37.775Z,89.56
2019-03-29T06:43:37.769Z,89.67
2019-03-29T06:44:37.727Z,89.56
2019-03-29T06:45:47.961Z,89.71
2019-03-29T06:46:38.713Z,89.67
2019-03-29T06:47:37.700Z,89.67
2019-03-29T06:48:37.715Z,89.15
2019-03-29T06:49:37.676Z,89.32
2019-03-29T06:50:37.678Z,88.90
2019-03-29T06:51:37.653Z,88.59
2019-03-29T06:52:37.641Z,88.70
2019-03-29T06:53:37.653Z,88.18
2019-03-29T06:54:37.636Z,88.39
2019-03-29T06:55:37.601Z,88.07
2019-03-29T06:56:37.590Z,88.04
2019-03-29T06:57:37.584Z,88.04
2019-03-29T06:58:37.596Z,87.93
2019-03-29T06:59:37.557Z,88.04
2019-03-29T07:00:37.550Z,87.83
2019-03-29T07:01:37.538Z,87.41
2019-03-29T07:02:37.524Z,87.62
2019-03-29T07:03:37.547Z,86.96
2019-03-29T07:04:37.500Z,86.86
2019-03-29T07:05:37.488Z,86.55
2019-03-29T07:06:37.510Z,86.13
2019-03-29T07:07:37.467Z,86.03
2019-03-29T07:08:37.504Z,86.10
2019-03-29T07:09:37.447Z,85.99
2019-03-29T07:10:37.442Z,85.47
2019-03-29T07:11:39.623Z,85.99
2019-03-29T07:12:37.411Z,85.99
2019-03-29T07:13:37.424Z,86.05
2019-03-29T07:14:37.394Z,86.05
2019-03-29T07:15:37.431Z,85.95
2019-03-29T07:16:37.373Z,85.85
2019-03-29T07:17:37.361Z,85.85
2019-03-29T07:18:37.344Z,85.50
2019-03-29T07:19:37.358Z,85.81
2019-03-29T07:20:37.336Z,84.47
2019-03-29T07:21:37.325Z,84.16
2019-03-29T07:22:37.299Z,84.78
2019-03-29T07:23:37.290Z,84.22
2019-03-29T07:24:37.300Z,84.16
2019-03-29T07:25:37.276Z,84.33
2019-03-29T07:26:37.277Z,83.81
2019-03-29T07:27:44.739Z,83.19
2019-03-29T07:28:38.246Z,83.91
2019-03-29T07:29:37.245Z,83.67
2019-03-29T07:30:37.207Z,83.81
2019-03-29T07:31:37.201Z,83.67
2019-03-29T07:32:37.202Z,83.56
2019-03-29T07:33:37.171Z,83.47
2019-03-29T07:34:37.195Z,83.56
2019-03-29T07:35:37.149Z,83.77
2019-03-29T07:36:37.424Z,83.12
2019-03-29T07:37:37.152Z,83.22
2019-03-29T07:38:37.128Z,82.91
2019-03-29T07:39:37.146Z,82.81
2019-03-29T07:40:37.094Z,82.60
2019-03-29T07:41:37.085Z,82.25
2019-03-29T07:42:37.075Z,82.35
2019-03-29T07:43:37.098Z,81.95
2019-03-29T07:44:37.103Z,81.95
2019-03-29T07:45:37.149Z,82.56
2019-03-29T07:46:37.059Z,82.46
2019-03-29T07:47:37.015Z,81.39
2019-03-29T07:48:40.324Z,81.60
2019-03-29T07:49:37.020Z,81.19
2019-03-29T07:50:36.980Z,81.35
2019-03-29T07:51:37.057Z,81.35
2019-03-29T07:52:36.965Z,80.94
2019-03-29T07:53:36.948Z,81.25
2019-03-29T07:54:36.999Z,80.60
2019-03-29T07:55:37.591Z,80.70
2019-03-29T07:56:36.913Z,80.49
2019-03-29T07:57:36.977Z,80.49
2019-03-29T07:58:36.893Z,80.60
2019-03-29T07:59:36.903Z,80.19
2019-03-29T08:00:36.909Z,80.08
2019-03-29T08:01:36.876Z,79.74
2019-03-29T08:02:36.848Z,79.63
2019-03-29T08:03:36.833Z,79.74
2019-03-29T08:04:36.855Z,79.33
2019-03-29T08:05:36.822Z,79.43
2019-03-29T08:06:36.807Z,79.02
2019-03-29T08:07:36.816Z,79.19
2019-03-29T08:08:36.781Z,79.19
2019-03-29T08:09:36.776Z,79.08
2019-03-29T08:10:36.818Z,79.08
2019-03-29T08:11:46.064Z,78.98
2019-03-29T08:12:40.370Z,78.43
2019-03-29T08:13:36.867Z,78.64
2019-03-29T08:14:36.711Z,78.23
2019-03-29T08:15:36.727Z,78.43
2019-03-29T08:16:36.689Z,78.02
2019-03-29T08:17:36.680Z,77.61
2019-03-29T08:18:36.666Z,77.51
2019-03-29T08:19:37.281Z,76.86
2019-03-29T08:20:40.554Z,76.34
2019-03-29T08:21:37.711Z,76.51
2019-03-29T08:22:36.635Z,75.79
2019-03-29T08:23:36.615Z,75.18
2019-03-29T08:24:36.598Z,75.18
2019-03-29T08:25:36.624Z,75.18
2019-03-29T08:26:36.577Z,75.04
2019-03-29T08:27:36.566Z,75.56
2019-03-29T08:28:36.551Z,75.04
2019-03-29T08:29:36.544Z,75.35
2019-03-29T08:30:36.557Z,75.24
2019-03-29T08:31:36.519Z,75.35
2019-03-29T08:32:36.559Z,75.52
2019-03-29T08:33:36.504Z,75.35
2019-03-29T08:34:36.485Z,75.15
2019-03-29T08:35:36.540Z,75.45
2019-03-29T08:36:36.470Z,75.21
2019-03-29T08:37:36.449Z,75.21
2019-03-29T08:38:36.440Z,74.90
2019-03-29T08:39:36.434Z,74.90
2019-03-29T08:40:36.483Z,75.01
2019-03-29T08:41:36.406Z,75.01
2019-03-29T08:42:36.405Z,75.11
2019-03-29T08:43:36.391Z,73.88
2019-03-29T08:44:36.375Z,73.95
2019-03-29T08:45:36.388Z,73.95
2019-03-29T08:46:36.367Z,73.95
2019-03-29T08:47:36.369Z,72.89
2019-03-29T08:48:36.346Z,72.99
2019-03-29T08:49:36.314Z,72.69
2019-03-29T08:50:36.404Z,72.99
2019-03-29T08:51:36.294Z,73.20
2019-03-29T08:52:36.282Z,73.81
2019-03-29T08:53:36.277Z,72.45
2019-03-29T08:54:36.268Z,72.24
2019-03-29T08:55:45.573Z,71.42
2019-03-29T08:56:37.234Z,71.73
2019-03-29T08:57:36.226Z,71.39
2019-03-29T08:58:36.271Z,70.78
2019-03-29T08:59:36.205Z,70.67
2019-03-29T09:00:36.225Z,71.29
2019-03-29T09:01:36.178Z,71.08
2019-03-29T09:02:36.167Z,71.19
2019-03-29T09:03:36.183Z,70.98
2019-03-29T09:04:36.149Z,70.84
2019-03-29T09:05:38.992Z,70.43
2019-03-29T09:06:36.133Z,70.54
2019-03-29T09:07:44.645Z,70.00
2019-03-29T09:08:37.105Z,69.69
2019-03-29T09:09:36.113Z,69.76
2019-03-29T09:10:36.082Z,68.53
2019-03-29T09:11:38.807Z,68.43
2019-03-29T09:12:36.065Z,68.23
2019-03-29T09:13:36.085Z,67.68
2019-03-29T09:14:36.039Z,67.58
2019-03-29T09:15:36.033Z,67.38
2019-03-29T09:16:36.044Z,67.35
2019-03-29T09:17:36.007Z,67.24
2019-03-29T09:18:35.988Z,67.65
2019-03-29T09:19:35.975Z,68.16
2019-03-29T09:20:35.991Z,67.24
2019-03-29T09:21:35.960Z,67.04
2019-03-29T09:22:35.962Z,67.01
2019-03-29T09:23:35.934Z,66.70
2019-03-29T09:24:35.927Z,66.50
2019-03-29T09:25:35.946Z,66.60
2019-03-29T09:26:35.926Z,66.88
2019-03-29T09:27:35.892Z,66.57
2019-03-29T09:28:35.881Z,66.67
2019-03-29T09:29:35.870Z,66.27
2019-03-29T09:30:35.853Z,65.83
2019-03-29T09:31:35.868Z,66.23
2019-03-29T09:32:35.828Z,66.03
2019-03-29T09:33:35.818Z,66.20
2019-03-29T09:34:35.806Z,65.19
2019-03-29T09:35:35.797Z,63.65
2019-03-29T09:36:35.844Z,64.95
2019-03-29T09:37:35.776Z,65.25
2019-03-29T09:38:35.761Z,64.64
2019-03-29T09:39:35.770Z,64.03
2019-03-29T09:40:35.746Z,63.42
2019-03-29T09:41:35.767Z,63.59
2019-03-29T09:42:35.722Z,62.88
2019-03-29T09:43:35.715Z,62.65
2019-03-29T09:44:35.699Z,62.01
2019-03-29T09:45:35.684Z,62.55
2019-03-29T09:46:35.706Z,62.01
2019-03-29T09:47:40.083Z,61.51
2019-03-29T09:48:36.649Z,61.20
2019-03-29T09:49:35.650Z,61.10
2019-03-29T09:50:35.633Z,61.57
2019-03-29T09:51:36.150Z,61.78
2019-03-29T09:52:35.610Z,60.56
2019-03-29T09:53:35.618Z,59.64
2019-03-29T09:54:35.580Z,59.62
2019-03-29T09:55:35.568Z,60.43
2019-03-29T09:56:39.184Z,60.33
2019-03-29T09:57:37.936Z,59.11
2019-03-29T09:58:35.544Z,59.72
2019-03-29T09:59:35.538Z,59.31
2019-03-29T10:00:35.525Z,59.62
2019-03-29T10:01:35.581Z,59.28
2019-03-29T10:02:36.434Z,59.18
2019-03-29T10:03:35.476Z,59.08
2019-03-29T10:04:35.465Z,59.28
2019-03-29T10:05:35.456Z,59.26
2019-03-29T10:06:35.495Z,57.33
2019-03-29T10:07:35.433Z,56.82
2019-03-29T10:08:35.420Z,57.60
2019-03-29T10:09:35.410Z,57.60
2019-03-29T10:10:35.401Z,56.29
2019-03-29T10:11:35.395Z,55.65
2019-03-29T10:12:43.482Z,55.55
2019-03-29T10:13:36.364Z,57.28
2019-03-29T10:14:35.353Z,56.36
2019-03-29T10:15:35.350Z,55.45
2019-03-29T10:16:35.332Z,56.74
2019-03-29T10:17:35.343Z,55.63
2019-03-29T10:18:35.317Z,55.73
2019-03-29T10:19:35.313Z,56.34
2019-03-29T10:20:35.287Z,55.32
2019-03-29T10:21:35.278Z,55.50
2019-03-29T10:22:35.291Z,55.80
2019-03-29T10:23:35.253Z,55.80
2019-03-29T10:24:35.240Z,55.90
2019-03-29T10:25:35.229Z,53.65
2019-03-29T10:26:35.217Z,53.14
2019-03-29T10:27:35.278Z,52.94
2019-03-29T10:28:35.205Z,52.92
2019-03-29T10:29:35.190Z,53.50
2019-03-29T10:30:35.188Z,52.39
2019-03-29T10:31:35.203Z,53.30
2019-03-29T10:32:35.180Z,52.56
2019-03-29T10:33:35.146Z,53.88
2019-03-29T10:34:37.545Z,51.65
2019-03-29T10:35:50.272Z,52.44
2019-03-29T10:36:36.106Z,53.25
2019-03-29T10:37:35.154Z,52.64
2019-03-29T10:38:35.089Z,51.53
2019-03-29T10:39:35.820Z,52.11
2019-03-29T10:40:35.071Z,51.40
2019-03-29T10:41:37.988Z,51.30
2019-03-29T10:42:35.092Z,52.01
2019-03-29T10:43:35.027Z,52.11
2019-03-29T10:44:35.013Z,52.31
2019-03-29T10:45:39.945Z,51.48
2019-03-29T10:46:36.038Z,52.09
2019-03-29T10:47:43.809Z,51.58
2019-03-29T10:48:35.968Z,51.07
2019-03-29T10:49:34.968Z,50.85
2019-03-29T10:50:34.945Z,51.38
2019-03-29T10:51:34.959Z,50.35
2019-03-29T10:52:34.953Z,49.33
2019-03-29T10:53:34.915Z,51.15
2019-03-29T10:54:34.906Z,51.03
2019-03-29T10:55:34.896Z,50.45
2019-03-29T10:56:34.886Z,49.94
2019-03-29T10:57:34.918Z,50.04
2019-03-29T10:58:34.946Z,50.12
2019-03-29T10:59:34.927Z,49.21
2019-03-29T11:00:34.836Z,49.11
2019-03-29T11:01:34.826Z,47.47
2019-03-29T11:02:34.838Z,48.08
2019-03-29T11:03:34.841Z,47.07
2019-03-29T11:04:34.790Z,46.57
2019-03-29T11:05:34.786Z,46.55
2019-03-29T11:06:34.793Z,47.07
2019-03-29T11:07:34.780Z,46.95
2019-03-29T11:08:34.749Z,46.85
2019-03-29T11:09:37.005Z,45.34
2019-03-29T11:10:34.720Z,46.34
2019-03-29T11:11:34.710Z,46.93
2019-03-29T11:12:34.714Z,46.62
2019-03-29T11:13:34.716Z,47.00
2019-03-29T11:14:34.678Z,45.57
2019-03-29T11:15:34.663Z,45.37
2019-03-29T11:16:34.661Z,45.27
2019-03-29T11:17:34.666Z,45.27
2019-03-29T11:18:34.631Z,45.65
2019-03-29T11:19:34.625Z,45.45
2019-03-29T11:20:34.609Z,44.75
2019-03-29T11:21:34.605Z,45.15
2019-03-29T11:22:34.615Z,44.37
2019-03-29T11:23:34.605Z,46.28
2019-03-29T11:24:34.565Z,45.29
2019-03-29T11:25:34.553Z,47.00
2019-03-29T11:26:34.550Z,46.12
2019-03-29T11:27:34.530Z,45.54
2019-03-29T11:28:34.553Z,47.15
2019-03-29T11:29:34.511Z,47.53
2019-03-29T11:30:42.237Z,45.29
2019-03-29T11:31:35.482Z,47.00
2019-03-29T11:32:34.475Z,46.50
2019-03-29T11:33:34.489Z,46.26
2019-03-29T11:34:34.449Z,45.15
2019-03-29T11:35:34.441Z,45.13
2019-03-29T11:36:34.447Z,46.23
2019-03-29T11:37:34.417Z,45.25
2019-03-29T11:38:34.435Z,46.56
2019-03-29T11:39:34.398Z,46.46
2019-03-29T11:40:34.392Z,46.38
2019-03-29T11:41:34.374Z,46.00
2019-03-29T11:42:34.376Z,46.91
2019-03-29T11:43:34.375Z,46.83
2019-03-29T11:44:34.337Z,47.25
2019-03-29T11:45:34.327Z,46.73
2019-03-29T11:46:34.316Z,47.11
2019-03-29T11:47:34.348Z,47.11
2019-03-29T11:48:34.322Z,46.93
2019-03-29T11:49:34.285Z,47.53
2019-03-29T11:50:34.270Z,46.83
2019-03-29T11:51:34.259Z,47.63
2019-03-29T11:52:34.250Z,46.83
2019-03-29T11:53:34.262Z,46.33
2019-03-29T11:54:34.230Z,46.40
2019-03-29T11:55:34.272Z,45.82
2019-03-29T11:56:34.209Z,45.21
2019-03-29T11:57:34.211Z,45.50
2019-03-29T11:58:34.225Z,47.08
2019-03-29T11:59:34.174Z,45.86
2019-03-29T12:00:34.161Z,45.45
2019-03-29T12:01:34.152Z,44.04
2019-03-29T12:02:34.135Z,45.35
2019-03-29T12:03:34.148Z,44.35
2019-03-29T12:04:34.113Z,43.02
2019-03-29T12:05:36.219Z,44.43
2019-03-29T12:06:34.092Z,44.00
2019-03-29T12:07:34.081Z,43.80
2019-03-29T12:08:34.100Z,43.10
2019-03-29T12:09:34.055Z,43.90
2019-03-29T12:10:34.049Z,43.30
2019-03-29T12:11:34.033Z,43.00
2019-03-29T12:12:34.024Z,43.90
2019-03-29T12:13:40.998Z,43.70
2019-03-29T12:14:34.999Z,44.00
2019-03-29T12:15:33.989Z,43.40
2019-03-29T12:16:33.984Z,43.20
2019-03-29T12:17:33.966Z,43.18
2019-03-29T12:18:33.958Z,42.97
2019-03-29T12:19:33.973Z,42.58
2019-03-29T12:20:33.935Z,43.08
2019-03-29T12:21:33.923Z,43.26
2019-03-29T12:22:33.929Z,42.44
2019-03-29T12:23:33.900Z,42.63
2019-03-29T12:24:33.913Z,41.74
2019-03-29T12:25:33.881Z,42.44
2019-03-29T12:26:33.869Z,42.55
2019-03-29T12:27:33.859Z,42.19
2019-03-29T12:28:33.852Z,43.30
2019-03-29T12:29:33.856Z,41.37
2019-03-29T12:30:33.833Z,42.88
2019-03-29T12:31:33.809Z,42.05
2019-03-29T12:32:33.804Z,42.33
2019-03-29T12:33:33.794Z,41.83
2019-03-29T12:34:33.804Z,42.11
2019-03-29T12:35:33.766Z,41.82
2019-03-29T12:36:33.756Z,42.32
2019-03-29T12:37:33.743Z,42.02
2019-03-29T12:38:33.735Z,42.21
2019-03-29T12:39:33.751Z,42.11
2019-03-29T12:40:33.712Z,41.79
2019-03-29T12:41:33.701Z,42.21
2019-03-29T12:42:33.695Z,42.44
2019-03-29T12:43:33.677Z,42.25
2019-03-29T12:44:33.691Z,42.69
2019-03-29T12:45:33.664Z,44.12
2019-03-29T12:46:33.644Z,44.04
2019-03-29T12:47:33.633Z,44.35
2019-03-29T12:48:33.622Z,44.24
2019-03-29T12:49:33.635Z,43.62
2019-03-29T12:50:33.599Z,44.02
2019-03-29T12:51:33.589Z,43.62
2019-03-29T12:52:33.579Z,42.80